Time;durP1;ratioP1;P1;durP2;ratioP2;P2;SDS_P1;SDS_P2;PMS_P1;PMS_P2;Temp;Humidity;BMP_temperature;BMP_pressure;BME280_temperature;BME280_humidity;BME280_pressure;Samples;Min_cycle;Max_cycle;Signal;HPM_P1;HPM_P2
2023/11/23 00:02:19;;;;;;;1999.90;999.90;;;9.20;99.90;;;;;;4973921;28;20031;-71
2023/11/23 00:04:44;;;;;;;1999.90;999.90;;;9.30;99.90;;;;;;4965165;28;20124;-72
2023/11/23 00:07:11;;;;;;;1999.90;999.90;;;9.20;99.90;;;;;;4959886;28;20434;-71
2023/11/23 00:09:37;;;;;;;1999.90;999.90;;;9.20;99.90;;;;;;4954693;28;20085;-71
2023/11/23 00:12:03;;;;;;;1999.90;999.90;;;9.20;99.90;;;;;;4970342;28;20082;-71
2023/11/23 00:14:30;;;;;;;1999.90;999.90;;;9.20;99.90;;;;;;4970315;28;20409;-71
2023/11/23 00:16:56;;;;;;;1999.90;999.90;;;9.20;99.90;;;;;;4973380;28;20054;-71
2023/11/23 00:19:23;;;;;;;1999.90;999.90;;;9.20;99.90;;;;;;4972117;28;20123;-72
2023/11/23 00:21:49;;;;;;;1999.90;999.90;;;9.30;99.90;;;;;;4971661;28;20276;-71
2023/11/23 00:24:17;;;;;;;1999.90;999.90;;;9.30;99.90;;;;;;4963488;28;20311;-71
2023/11/23 00:26:44;;;;;;;1999.90;999.90;;;9.30;99.90;;;;;;4969505;28;20368;-71
2023/11/23 00:29:10;;;;;;;1999.90;999.90;;;9.30;99.90;;;;;;4972506;28;20034;-71
2023/11/23 00:31:36;;;;;;;1999.90;999.90;;;9.30;99.90;;;;;;4967337;28;20062;-71
2023/11/23 00:34:05;;;;;;;1999.90;999.90;;;9.30;99.90;;;;;;4973302;28;20067;-71
2023/11/23 00:36:35;;;;;;;1999.90;999.90;;;9.30;99.90;;;;;;4954946;28;20034;-71
2023/11/23 00:39:01;;;;;;;1999.90;999.90;;;9.30;99.90;;;;;;4965350;28;20116;-71
2023/11/23 00:41:27;;;;;;;1999.90;999.90;;;9.30;99.90;;;;;;4967872;28;20130;-71
2023/11/23 00:43:53;;;;;;;1999.90;999.90;;;9.40;99.90;;;;;;4969438;28;20133;-71
2023/11/23 00:46:18;;;;;;;1999.90;999.90;;;9.40;99.90;;;;;;4962208;28;20085;-72
2023/11/23 00:48:44;;;;;;;1999.90;999.90;;;9.40;99.90;;;;;;4970931;28;20030;-71
2023/11/23 00:51:10;;;;;;;1999.90;999.90;;;9.40;99.90;;;;;;4970924;28;20027;-71
2023/11/23 00:53:37;;;;;;;1999.90;999.90;;;9.40;99.90;;;;;;4969272;28;20478;-71
2023/11/23 00:56:03;;;;;;;1999.90;999.90;;;9.50;99.90;;;;;;4972893;28;20409;-71
2023/11/23 00:58:29;;;;;;;1999.90;999.90;;;9.50;99.90;;;;;;4972970;28;20080;-71
2023/11/23 01:00:55;;;;;;;1999.90;999.90;;;9.50;99.90;;;;;;4958719;28;20321;-71
2023/11/23 01:03:24;;;;;;;1999.90;999.90;;;9.50;99.90;;;;;;4963230;28;20030;-71
2023/11/23 01:05:50;;;;;;;1999.90;999.90;;;9.50;99.90;;;;;;4972115;28;20035;-71
2023/11/23 01:08:16;;;;;;;1999.90;999.90;;;9.60;99.90;;;;;;4972581;28;20342;-71
2023/11/23 01:10:43;;;;;;;1999.90;999.90;;;9.60;99.90;;;;;;4970319;28;20037;-71
2023/11/23 01:13:09;;;;;;;1999.90;999.90;;;9.70;99.90;;;;;;4967199;28;20046;-71
2023/11/23 01:15:35;;;;;;;1999.90;999.90;;;9.80;99.90;;;;;;4964393;28;20047;-71
2023/11/23 01:18:01;;;;;;;1999.90;999.90;;;9.90;99.90;;;;;;4971899;28;20058;-71
2023/11/23 01:20:27;;;;;;;1999.90;999.90;;;10.00;99.90;;;;;;4962972;28;20027;-71
2023/11/23 01:22:53;;;;;;;1999.90;999.90;;;10.00;99.90;;;;;;4958835;28;20031;-71
2023/11/23 01:25:18;;;;;;;1999.90;999.90;;;10.10;99.90;;;;;;4966834;28;20114;-71
2023/11/23 01:27:44;;;;;;;1999.90;999.90;;;10.20;99.90;;;;;;4964210;28;20039;-71
2023/11/23 01:30:10;;;;;;;1999.90;999.90;;;10.30;99.90;;;;;;4970316;28;20424;-71
2023/11/23 01:32:36;;;;;;;1999.90;999.90;;;10.20;99.90;;;;;;4972329;28;20492;-71
2023/11/23 01:35:02;;;;;;;1999.90;999.90;;;10.20;99.90;;;;;;4971976;28;20062;-71
2023/11/23 01:37:28;;;;;;;1999.90;999.90;;;10.10;99.90;;;;;;4969193;28;20034;-71
2023/11/23 01:39:54;;;;;;;1999.90;999.90;;;10.10;99.90;;;;;;4970308;28;20055;-71
2023/11/23 01:42:20;;;;;;;1999.90;999.90;;;10.00;99.90;;;;;;4972842;28;20023;-71
2023/11/23 01:44:46;;;;;;;1999.90;999.90;;;10.00;99.90;;;;;;4971054;28;20022;-71
2023/11/23 01:47:14;;;;;;;1999.90;999.90;;;9.90;99.90;;;;;;4953684;28;20042;-71
2023/11/23 01:49:42;;;;;;;1999.90;999.90;;;9.90;99.90;;;;;;4962740;28;20092;-71
2023/11/23 01:52:08;;;;;;;1999.90;999.90;;;9.90;99.90;;;;;;4969542;28;20033;-71
2023/11/23 01:54:34;;;;;;;1999.90;999.90;;;9.90;99.90;;;;;;4963975;28;20027;-71
2023/11/23 01:57:01;;;;;;;1999.90;999.90;;;9.80;99.90;;;;;;4971711;28;20303;-71
2023/11/23 01:59:28;;;;;;;1999.90;999.90;;;9.80;99.90;;;;;;4961952;28;20099;-71
2023/11/23 02:01:53;;;;;;;1999.90;999.90;;;9.70;99.90;;;;;;4966495;28;20117;-71
2023/11/23 02:04:19;;;;;;;1999.90;999.90;;;9.70;99.90;;;;;;4965826;28;20039;-71
2023/11/23 02:06:46;;;;;;;1999.90;999.90;;;9.70;99.90;;;;;;4969688;28;20027;-71
2023/11/23 02:09:13;;;;;;;1999.90;999.90;;;9.60;99.90;;;;;;4968647;28;20039;-71
2023/11/23 02:11:38;;;;;;;1999.90;999.90;;;9.70;99.90;;;;;;4953285;28;20031;-71
2023/11/23 02:14:06;;;;;;;1999.90;999.90;;;9.70;99.90;;;;;;4970923;28;20031;-71
2023/11/23 02:16:33;;;;;;;1999.90;999.90;;;9.60;99.90;;;;;;4971085;28;20027;-71
2023/11/23 02:18:59;;;;;;;1999.90;999.90;;;9.60;99.90;;;;;;4963678;28;20100;-71
2023/11/23 02:21:25;;;;;;;1999.90;999.90;;;9.60;99.90;;;;;;4967625;28;20101;-71
2023/11/23 02:23:50;;;;;;;1999.90;999.90;;;9.60;99.90;;;;;;4966805;28;20425;-71
2023/11/23 02:26:16;;;;;;;1999.90;999.90;;;9.60;99.90;;;;;;4966746;28;20106;-72
2023/11/23 02:28:42;;;;;;;1999.90;999.90;;;9.70;99.90;;;;;;4969967;28;20409;-72
2023/11/23 02:31:08;;;;;;;1999.90;999.90;;;9.70;99.90;;;;;;4972139;28;20019;-71
2023/11/23 02:33:34;;;;;;;1999.90;999.90;;;9.80;99.90;;;;;;4966152;28;20048;-71
2023/11/23 02:36:00;;;;;;;1999.90;999.90;;;9.80;99.90;;;;;;4975785;28;20026;-72
2023/11/23 02:38:26;;;;;;;1999.90;999.90;;;9.80;99.90;;;;;;4967947;28;20077;-71
2023/11/23 02:40:52;;;;;;;1999.90;999.90;;;9.80;99.90;;;;;;4961292;28;20057;-71
2023/11/23 02:43:18;;;;;;;1999.90;999.90;;;9.90;99.90;;;;;;4969596;28;20038;-71
2023/11/23 02:45:45;;;;;;;1999.90;999.90;;;9.80;99.90;;;;;;4961327;28;20031;-71
2023/11/23 02:48:11;;;;;;;1999.90;999.90;;;9.80;99.90;;;;;;4974943;28;20030;-71
2023/11/23 02:50:37;;;;;;;1999.90;999.90;;;9.80;99.90;;;;;;4965883;28;20080;-71
2023/11/23 02:53:03;;;;;;;1999.90;999.90;;;9.70;99.90;;;;;;4975438;28;20353;-71
2023/11/23 02:55:30;;;;;;;1999.90;999.90;;;9.70;99.90;;;;;;4960455;28;20030;-71
2023/11/23 02:57:56;;;;;;;1999.90;999.90;;;9.60;99.90;;;;;;4959300;28;20042;-71
2023/11/23 03:00:21;;;;;;;1999.90;999.90;;;9.60;99.90;;;;;;4967804;28;20019;-71
2023/11/23 03:02:47;;;;;;;1999.90;999.90;;;9.50;99.90;;;;;;4972229;28;20428;-72
2023/11/23 03:05:13;;;;;;;1999.90;999.90;;;9.50;99.90;;;;;;4974605;28;20110;-71
2023/11/23 03:07:39;;;;;;;1999.90;999.90;;;9.50;99.90;;;;;;4970470;28;20330;-71
2023/11/23 03:10:06;;;;;;;1999.90;999.90;;;9.50;99.90;;;;;;4974532;28;20030;-71
2023/11/23 03:12:31;;;;;;;1999.90;999.90;;;9.50;99.90;;;;;;4970173;28;20382;-71
2023/11/23 03:14:58;;;;;;;1999.90;999.90;;;9.40;99.90;;;;;;4973229;28;20106;-72
2023/11/23 03:17:23;;;;;;;1999.90;999.90;;;9.40;99.90;;;;;;4974920;28;20060;-71
2023/11/23 03:19:49;;;;;;;1999.90;999.90;;;9.40;99.90;;;;;;4974521;28;20121;-71
2023/11/23 03:22:15;;;;;;;1999.90;999.90;;;9.40;99.90;;;;;;4971818;28;20129;-71
2023/11/23 03:24:42;;;;;;;1999.90;999.90;;;9.40;99.90;;;;;;4958022;28;20390;-71
2023/11/23 03:27:09;;;;;;;1999.90;999.90;;;9.40;99.90;;;;;;4969738;28;20053;-71
2023/11/23 03:29:35;;;;;;;1999.90;999.90;;;9.40;99.90;;;;;;4968855;28;20092;-71
2023/11/23 03:32:02;;;;;;;1999.90;999.90;;;9.50;99.90;;;;;;4979065;28;20015;-71
2023/11/23 03:34:28;;;;;;;1999.90;999.90;;;9.50;99.90;;;;;;4971928;28;20345;-71
2023/11/23 03:36:55;;;;;;;1999.90;999.90;;;9.50;99.90;;;;;;4971260;28;20035;-71
2023/11/23 03:39:21;;;;;;;1999.90;999.90;;;9.50;99.90;;;;;;4971407;28;20043;-71
2023/11/23 03:41:47;;;;;;;1999.90;999.90;;;9.50;99.90;;;;;;4969541;28;20113;-71
2023/11/23 03:44:13;;;;;;;1999.90;999.90;;;9.40;99.90;;;;;;4971489;28;21881;-71
2023/11/23 03:46:40;;;;;;;1999.90;999.90;;;9.40;99.90;;;;;;4968114;28;20460;-71
2023/11/23 03:49:06;;;;;;;;;;;9.40;99.90;;;;;;4970399;28;20023;-72
2023/11/23 03:51:32;;;;;;;1999.90;999.90;;;9.40;99.90;;;;;;4969535;28;19911;-71
2023/11/23 03:53:58;;;;;;;1999.90;999.90;;;9.40;99.90;;;;;;4970267;28;20242;-71
2023/11/23 03:56:24;;;;;;;1999.90;999.90;;;9.40;99.90;;;;;;4970689;28;20030;-71
2023/11/23 03:58:50;;;;;;;1999.90;999.90;;;9.50;99.90;;;;;;4971320;28;20031;-72
2023/11/23 04:01:17;;;;;;;1999.90;999.90;;;9.60;99.90;;;;;;4966435;28;20061;-71
2023/11/23 04:03:46;;;;;;;1999.90;999.90;;;9.70;99.90;;;;;;4968524;28;20433;-71
2023/11/23 04:06:13;;;;;;;1999.90;999.90;;;9.70;99.90;;;;;;4970080;28;20440;-71
2023/11/23 04:08:41;;;;;;;1999.90;999.90;;;9.80;99.90;;;;;;4971754;28;20042;-72
2023/11/23 04:11:09;;;;;;;1999.90;999.90;;;9.80;99.90;;;;;;4967292;28;20077;-71
2023/11/23 04:13:35;;;;;;;1999.90;999.90;;;9.90;99.90;;;;;;4969146;28;20023;-71
2023/11/23 04:16:01;;;;;;;1999.90;999.90;;;10.00;99.90;;;;;;4971334;28;20034;-71
2023/11/23 04:18:28;;;;;;;1999.90;999.90;;;9.90;99.90;;;;;;4966429;28;20091;-71
2023/11/23 04:20:54;;;;;;;1999.90;999.90;;;9.90;99.90;;;;;;4964288;28;20039;-71
2023/11/23 04:23:20;;;;;;;1999.90;999.90;;;10.00;99.90;;;;;;4966158;28;20037;-72
2023/11/23 04:25:46;;;;;;;1999.90;999.90;;;10.00;99.90;;;;;;4957841;28;20030;-72
2023/11/23 04:28:12;;;;;;;1999.90;999.90;;;10.00;99.90;;;;;;4967043;28;20108;-71
2023/11/23 04:30:38;;;;;;;1999.90;999.90;;;10.00;99.90;;;;;;4971077;28;20031;-71
2023/11/23 04:33:03;;;;;;;1999.90;999.90;;;10.00;99.90;;;;;;4962241;28;20040;-71
2023/11/23 04:35:29;;;;;;;1999.90;999.90;;;10.00;99.90;;;;;;4959963;28;20077;-71
2023/11/23 04:37:55;;;;;;;1999.90;999.90;;;10.00;99.90;;;;;;4994612;28;20116;-72
2023/11/23 04:40:21;;;;;;;1999.90;999.90;;;10.10;99.90;;;;;;4918984;28;1378312;-73
2023/11/23 04:42:47;;;;;;;1999.90;999.90;;;10.10;99.90;;;;;;4956274;28;20038;-72
2023/11/23 04:45:13;;;;;;;1999.90;999.90;;;10.10;99.90;;;;;;4961168;28;20043;-72
2023/11/23 04:47:38;;;;;;;1999.90;999.90;;;10.10;99.90;;;;;;4959136;28;20484;-71
2023/11/23 04:50:05;;;;;;;1999.90;999.90;;;10.10;99.90;;;;;;4964433;28;20436;-72
2023/11/23 04:52:30;;;;;;;1999.90;999.90;;;10.10;99.90;;;;;;4969898;28;20042;-71
2023/11/23 04:54:56;;;;;;;1999.90;999.90;;;10.10;99.90;;;;;;4960945;28;20036;-72
2023/11/23 04:57:23;;;;;;;1999.90;999.90;;;10.10;99.90;;;;;;4969085;28;20038;-71
2023/11/23 04:59:49;;;;;;;1999.90;999.90;;;10.20;99.90;;;;;;4967654;28;20039;-71
2023/11/23 05:02:16;;;;;;;1999.90;999.90;;;10.20;99.90;;;;;;4960721;28;20084;-71
2023/11/23 05:04:42;;;;;;;1999.90;999.90;;;10.10;99.90;;;;;;4968082;28;20036;-72
2023/11/23 05:07:08;;;;;;;1999.90;999.90;;;10.20;99.90;;;;;;4970473;28;20109;-72
2023/11/23 05:09:33;;;;;;;1999.90;999.90;;;10.20;99.90;;;;;;4961786;28;20039;-71
2023/11/23 05:11:59;;;;;;;1999.90;999.90;;;10.20;99.90;;;;;;4965557;28;20023;-71
2023/11/23 05:14:25;;;;;;;1999.90;999.90;;;10.20;99.90;;;;;;4971405;28;20065;-72
2023/11/23 05:16:51;;;;;;;1999.90;999.90;;;10.20;99.90;;;;;;4965604;28;20417;-71
2023/11/23 05:19:19;;;;;;;1999.90;999.90;;;10.10;99.90;;;;;;4959603;28;20414;-74
2023/11/23 05:21:46;;;;;;;1999.90;999.90;;;10.10;99.90;;;;;;4968696;28;20030;-71
2023/11/23 05:24:12;;;;;;;1999.90;999.90;;;10.10;99.90;;;;;;4963313;28;20114;-71
2023/11/23 05:26:38;;;;;;;1999.90;999.90;;;10.10;99.90;;;;;;4971162;28;20149;-71
2023/11/23 05:29:04;;;;;;;1999.90;999.90;;;10.10;99.90;;;;;;4968317;28;20037;-71
2023/11/23 05:31:30;;;;;;;1999.90;999.90;;;10.00;99.90;;;;;;4969615;28;20037;-71
2023/11/23 05:33:56;;;;;;;1999.90;999.90;;;10.00;99.90;;;;;;4969832;28;20023;-71
2023/11/23 05:36:22;;;;;;;1999.90;999.90;;;10.00;99.90;;;;;;4972212;28;20264;-71
2023/11/23 05:38:48;;;;;;;1999.90;999.90;;;10.00;99.90;;;;;;4967531;28;20343;-71
2023/11/23 05:41:14;;;;;;;1999.90;999.90;;;9.90;99.90;;;;;;4970400;28;20083;-71
2023/11/23 05:43:41;;;;;;;1999.90;999.90;;;9.80;99.90;;;;;;4968415;28;20110;-71
2023/11/23 05:46:07;;;;;;;1999.90;999.90;;;9.80;99.90;;;;;;4969078;28;20033;-71
2023/11/23 05:48:33;;;;;;;1999.90;999.90;;;9.80;99.90;;;;;;4970499;28;20039;-71
2023/11/23 05:51:00;;;;;;;1999.90;999.90;;;9.80;99.90;;;;;;4971414;28;20015;-71
2023/11/23 05:53:25;;;;;;;1999.90;999.90;;;9.80;99.90;;;;;;4971236;28;20073;-71
2023/11/23 05:55:51;;;;;;;1999.90;999.90;;;9.80;99.90;;;;;;4976980;28;20027;-71
2023/11/23 05:58:17;;;;;;;1999.90;999.90;;;9.80;99.90;;;;;;4972625;28;20031;-71
2023/11/23 06:00:43;;;;;;;1999.90;999.90;;;9.80;99.90;;;;;;4968636;28;20041;-71
2023/11/23 06:03:09;;;;;;;1999.90;999.90;;;9.80;99.90;;;;;;4958260;28;20052;-72
2023/11/23 06:05:35;;;;;;;1999.90;999.90;;;9.80;99.90;;;;;;4960579;28;20038;-71
2023/11/23 06:08:02;;;;;;;1999.90;999.90;;;9.80;99.90;;;;;;4971459;28;20042;-71
2023/11/23 06:10:28;;;;;;;1999.90;999.90;;;9.80;99.90;;;;;;4970284;28;20052;-71
2023/11/23 06:12:54;;;;;;;1999.90;999.90;;;9.80;99.90;;;;;;4971062;28;20142;-71
2023/11/23 06:15:20;;;;;;;1999.90;999.90;;;9.80;99.90;;;;;;4972439;28;20461;-71
2023/11/23 06:17:46;;;;;;;1999.90;999.90;;;9.90;99.90;;;;;;4968905;28;20322;-71
2023/11/23 06:20:12;;;;;;;1999.90;999.90;;;9.90;99.90;;;;;;4963083;28;20058;-71
2023/11/23 06:22:38;;;;;;;1999.90;999.90;;;9.90;99.90;;;;;;4971845;28;20046;-71
2023/11/23 06:25:04;;;;;;;1999.90;999.90;;;10.00;99.90;;;;;;4970388;28;20038;-72
2023/11/23 06:27:32;;;;;;;1999.90;999.90;;;10.00;99.90;;;;;;4961998;28;20028;-71
2023/11/23 06:29:58;;;;;;;1999.90;999.90;;;10.00;99.90;;;;;;4962246;28;20289;-71
2023/11/23 06:32:23;;;;;;;1999.90;999.90;;;10.00;99.90;;;;;;4967731;28;20034;-71
2023/11/23 06:34:49;;;;;;;1999.90;999.90;;;9.90;99.90;;;;;;4968565;28;20425;-71
2023/11/23 06:37:15;;;;;;;1999.90;999.90;;;9.80;99.90;;;;;;4960597;28;20034;-71
2023/11/23 06:39:42;;;;;;;1999.90;999.90;;;9.90;99.90;;;;;;4998815;28;20333;-71
2023/11/23 06:42:08;;;;;;;;;;;9.80;99.90;;;;;;4964816;28;20027;-71
2023/11/23 06:44:34;;;;;;;1999.90;999.90;;;9.80;99.90;;;;;;4970456;28;19918;-71
2023/11/23 06:47:00;;;;;;;1999.90;999.90;;;9.80;99.90;;;;;;4968950;28;20283;-71
2023/11/23 06:49:27;;;;;;;1999.90;999.90;;;9.80;99.90;;;;;;4968153;28;20027;-71
2023/11/23 06:51:52;;;;;;;1999.90;999.90;;;9.80;99.90;;;;;;4969066;28;20027;-71
2023/11/23 06:54:18;;;;;;;1999.90;999.90;;;9.70;99.90;;;;;;4956704;28;20035;-71
2023/11/23 06:56:44;;;;;;;1999.90;999.90;;;9.70;99.90;;;;;;4971998;28;20030;-71
2023/11/23 06:59:10;;;;;;;1999.90;999.90;;;9.70;99.90;;;;;;4970856;28;20102;-71
2023/11/23 07:01:36;;;;;;;1999.90;999.90;;;9.70;99.90;;;;;;4964922;28;20090;-71
2023/11/23 07:04:01;;;;;;;1999.90;999.90;;;9.70;99.90;;;;;;4968030;28;20038;-71
2023/11/23 07:06:28;;;;;;;1999.90;999.90;;;9.70;99.90;;;;;;4967445;28;20308;-71
2023/11/23 07:08:54;;;;;;;1999.90;999.90;;;9.70;99.90;;;;;;4969394;28;20049;-71
2023/11/23 07:11:23;;;;;;;1999.90;999.90;;;9.60;99.90;;;;;;4969526;28;20110;-71
2023/11/23 07:13:51;;;;;;;1999.90;999.90;;;9.60;99.90;;;;;;4968453;28;20357;-71
2023/11/23 07:16:17;;;;;;;1999.90;999.90;;;9.60;99.90;;;;;;4968521;28;20030;-71
2023/11/23 07:18:43;;;;;;;1999.90;999.90;;;9.60;99.90;;;;;;4969222;28;20027;-71
2023/11/23 07:21:09;;;;;;;1999.90;999.90;;;9.60;99.90;;;;;;4966330;28;20273;-71
2023/11/23 07:23:37;;;;;;;1999.90;999.90;;;9.60;99.90;;;;;;4965912;28;20043;-71
2023/11/23 07:26:04;;;;;;;1999.90;999.90;;;9.60;99.90;;;;;;4970565;28;20035;-72
2023/11/23 07:28:29;;;;;;;1999.90;999.90;;;9.70;99.90;;;;;;4964133;28;20031;-71
2023/11/23 07:30:56;;;;;;;1999.90;999.90;;;9.70;99.90;;;;;;4971287;28;20030;-74
2023/11/23 07:33:24;;;;;;;1999.90;999.90;;;9.80;99.90;;;;;;4972362;28;20334;-71
2023/11/23 07:35:51;;;;;;;1999.90;999.90;;;9.90;99.90;;;;;;4974045;28;20034;-72
2023/11/23 07:38:17;;;;;;;1999.90;999.90;;;9.90;99.90;;;;;;4970666;28;20026;-71
2023/11/23 07:40:43;;;;;;;1999.90;999.90;;;10.00;99.90;;;;;;4973011;28;20053;-71
2023/11/23 07:43:09;;;;;;;1999.90;999.90;;;10.00;99.90;;;;;;4979292;28;20039;-71
2023/11/23 07:45:37;;;;;;;1999.90;999.90;;;10.00;99.90;;;;;;4974113;28;20026;-71
2023/11/23 07:48:08;;;;;;;1999.90;999.90;;;10.00;99.90;;;;;;5008249;28;20063;-71
2023/11/23 07:50:38;;;;;;;1999.90;999.90;;;9.90;99.90;;;;;;4964877;28;20096;-71
2023/11/23 07:53:04;;;;;;;1999.90;999.90;;;10.00;99.90;;;;;;4973180;28;20182;-71
2023/11/23 07:55:31;;;;;;;1999.90;999.90;;;10.10;99.90;;;;;;4975471;28;20053;-71
2023/11/23 07:57:57;;;;;;;1999.90;999.90;;;10.20;99.90;;;;;;4977186;28;20320;-73
2023/11/23 08:00:24;;;;;;;1999.90;999.90;;;10.20;99.90;;;;;;4975348;28;20031;-71
2023/11/23 08:02:50;;;;;;;1999.90;999.90;;;10.40;99.90;;;;;;4976290;28;20061;-71
2023/11/23 08:05:15;;;;;;;1999.90;999.90;;;10.40;99.90;;;;;;4977820;28;20055;-71
2023/11/23 08:07:42;;;;;;;1999.90;999.90;;;10.50;99.90;;;;;;4961647;28;20023;-71
2023/11/23 08:10:12;;;;;;;1999.90;999.90;;;10.50;99.90;;;;;;4969893;28;20030;-71
2023/11/23 08:12:39;;;;;;;1999.90;999.90;;;10.60;99.90;;;;;;4996912;28;20046;-71
2023/11/23 08:15:06;;;;;;;1999.90;999.90;;;10.70;99.90;;;;;;4985369;28;20425;-71
2023/11/23 08:17:32;;;;;;;1999.90;999.90;;;10.90;99.90;;;;;;4978460;28;20366;-71
2023/11/23 08:19:58;;;;;;;1999.90;999.90;;;10.90;99.90;;;;;;4992717;28;20018;-71
2023/11/23 08:22:24;;;;;;;1999.90;999.90;;;10.90;99.90;;;;;;4958611;28;20031;-71
2023/11/23 08:24:50;;;;;;;1999.90;999.90;;;11.00;99.90;;;;;;4977784;28;20027;-71
2023/11/23 08:27:16;;;;;;;1999.90;999.90;;;11.10;99.90;;;;;;4999097;28;20082;-72
2023/11/23 08:29:42;;;;;;;1999.90;999.90;;;11.20;99.90;;;;;;4968437;28;20035;-71
2023/11/23 08:32:08;;;;;;;1999.90;999.90;;;11.30;99.90;;;;;;4974666;28;20547;-71
2023/11/23 08:34:36;;;;;;;1999.90;999.90;;;11.30;99.90;;;;;;4971928;28;20110;-71
2023/11/23 08:37:03;;;;;;;1999.90;999.90;;;11.40;99.90;;;;;;4969964;28;20422;-71
2023/11/23 08:39:28;;;;;;;1999.90;999.90;;;11.40;99.90;;;;;;4976299;28;20055;-71
2023/11/23 08:41:54;;;;;;;1999.90;999.90;;;11.50;99.90;;;;;;4973520;28;20080;-71
2023/11/23 08:44:20;;;;;;;1999.90;999.90;;;11.60;99.90;;;;;;4983112;28;20094;-71
2023/11/23 08:46:46;;;;;;;1999.90;999.90;;;11.70;99.90;;;;;;4966634;28;20034;-72
2023/11/23 08:49:12;;;;;;;1999.90;999.90;;;11.70;99.90;;;;;;4980229;28;20026;-71
2023/11/23 08:51:38;;;;;;;1999.90;999.90;;;11.80;99.90;;;;;;4975669;28;20437;-71
2023/11/23 08:54:05;;;;;;;1999.90;999.90;;;11.80;99.90;;;;;;4964083;28;20031;-72
2023/11/23 08:56:32;;;;;;;1999.90;999.90;;;11.90;99.90;;;;;;4966403;28;20094;-72
2023/11/23 08:58:58;;;;;;;1999.90;999.90;;;11.90;99.90;;;;;;4973674;28;20038;-73
2023/11/23 09:01:26;;;;;;;1999.90;999.90;;;11.90;99.90;;;;;;4975628;28;20038;-72
2023/11/23 09:03:54;;;;;;;1999.90;999.90;;;11.90;99.90;;;;;;4969508;28;20023;-72
2023/11/23 09:06:20;;;;;;;1999.90;999.90;;;11.90;99.90;;;;;;4972309;28;20369;-71
2023/11/23 09:08:46;;;;;;;1999.90;999.90;;;11.90;99.90;;;;;;4971499;28;20034;-72
2023/11/23 09:11:12;;;;;;;1999.90;999.90;;;12.00;99.90;;;;;;4970442;28;20342;-72
2023/11/23 09:13:38;;;;;;;1999.90;999.90;;;12.00;99.90;;;;;;4968537;28;20094;-72
2023/11/23 09:16:04;;;;;;;1999.90;999.90;;;12.00;99.90;;;;;;4972294;28;20158;-71
2023/11/23 09:18:30;;;;;;;1999.90;999.90;;;12.00;99.90;;;;;;4966520;28;20479;-72
2023/11/23 09:20:56;;;;;;;1999.90;999.90;;;12.10;99.90;;;;;;4971585;28;20034;-72
2023/11/23 09:23:22;;;;;;;1999.90;999.90;;;12.10;99.90;;;;;;4954619;28;20074;-72
2023/11/23 09:25:48;;;;;;;1999.90;999.90;;;12.20;99.90;;;;;;4954365;28;20109;-72
2023/11/23 09:28:14;;;;;;;1999.90;999.90;;;12.10;99.90;;;;;;4953992;28;20063;-74
2023/11/23 09:30:41;;;;;;;1999.90;999.90;;;12.10;99.90;;;;;;4954351;28;20106;-73
2023/11/23 09:33:09;;;;;;;1999.90;999.90;;;12.10;99.90;;;;;;4970385;28;20030;-72
2023/11/23 09:35:39;;;;;;;1999.90;999.90;;;12.20;99.90;;;;;;4972098;28;20109;-72
2023/11/23 09:38:06;;;;;;;1999.90;999.90;;;12.20;99.90;;;;;;4959249;28;20027;-72
2023/11/23 09:40:33;;;;;;;1999.90;999.90;;;12.20;99.90;;;;;;4966707;28;20114;-71
2023/11/23 09:42:59;;;;;;;1999.90;999.90;;;12.30;99.90;;;;;;4965988;28;20085;-71
2023/11/23 09:45:24;;;;;;;1999.90;999.90;;;12.40;99.90;;;;;;4953779;28;20027;-72
2023/11/23 09:47:52;;;;;;;1999.90;999.90;;;12.50;99.90;;;;;;4964029;28;20019;-72
2023/11/23 09:50:19;;;;;;;1999.90;999.90;;;12.50;99.90;;;;;;4956363;28;20426;-72
2023/11/23 09:52:48;;;;;;;;;;;12.50;99.90;;;;;;4954369;28;20038;-72
2023/11/23 09:55:18;;;;;;;1999.90;999.90;;;12.60;99.90;;;;;;4966635;28;19964;-73
2023/11/23 09:57:45;;;;;;;1999.90;999.90;;;12.70;99.90;;;;;;4971759;28;20062;-72
2023/11/23 10:00:14;;;;;;;1999.90;999.90;;;12.70;99.90;;;;;;4971666;28;20023;-72
2023/11/23 10:02:44;;;;;;;1999.90;999.90;;;12.80;99.90;;;;;;4970841;28;20437;-73
2023/11/23 10:05:14;;;;;;;1999.90;999.90;;;12.80;99.90;;;;;;4972875;28;20092;-73
2023/11/23 10:07:44;;;;;;;1999.90;999.90;;;12.90;99.90;;;;;;4970463;28;20037;-72
2023/11/23 10:10:12;;;;;;;1999.90;999.90;;;12.90;99.90;;;;;;4972390;28;20035;-72
2023/11/23 10:12:38;;;;;;;1999.90;999.90;;;12.90;99.90;;;;;;4957284;28;20019;-72
2023/11/23 10:15:06;;;;;;;1999.90;999.90;;;12.90;99.90;;;;;;4965062;28;20030;-72
2023/11/23 10:17:33;;;;;;;1999.90;999.90;;;13.00;99.90;;;;;;4965840;28;20027;-72
2023/11/23 10:20:07;;;;;;;1999.90;999.90;;;13.10;99.90;;;;;;4972092;28;20027;-73
2023/11/23 10:22:33;;;;;;;1999.90;999.90;;;13.10;99.90;;;;;;4969595;28;20042;-72
2023/11/23 10:24:59;;;;;;;1999.90;999.90;;;13.20;99.90;;;;;;4970987;28;20023;-74
2023/11/23 10:27:26;;;;;;;1999.90;999.90;;;13.30;99.90;;;;;;4970482;28;20729;-72
2023/11/23 10:29:52;;;;;;;1999.90;999.90;;;13.40;99.90;;;;;;4971103;28;20027;-73
2023/11/23 10:32:19;;;;;;;1999.90;999.90;;;13.40;99.90;;;;;;4962453;28;20031;-72
2023/11/23 10:34:46;;;;;;;1999.90;999.90;;;13.40;99.90;;;;;;4966751;28;20428;-73
2023/11/23 10:37:18;;;;;;;1999.90;999.90;;;13.50;99.90;;;;;;4971137;28;20136;-72
2023/11/23 10:39:44;;;;;;;1999.90;999.90;;;13.50;99.90;;;;;;4960307;28;20047;-72
2023/11/23 10:42:14;;;;;;;1999.90;999.90;;;13.60;99.90;;;;;;4992283;28;20427;-73
2023/11/23 10:44:41;;;;;;;1999.90;999.90;;;13.60;99.90;;;;;;4971671;28;20035;-72
2023/11/23 10:47:10;;;;;;;1999.90;999.90;;;13.60;99.90;;;;;;5013838;28;20062;-72
2023/11/23 10:49:38;;;;;;;1999.90;999.90;;;13.70;99.90;;;;;;4969449;28;20110;-72
2023/11/23 10:52:08;;;;;;;1999.90;999.90;;;13.80;99.90;;;;;;4970281;28;20026;-73
2023/11/23 10:54:36;;;;;;;1999.90;999.90;;;13.80;99.90;;;;;;4968208;28;20684;-72
2023/11/23 10:57:07;;;;;;;1999.90;999.90;;;14.00;99.90;;;;;;4970447;28;20015;-73
2023/11/23 10:59:34;;;;;;;1999.90;999.90;;;13.90;99.90;;;;;;4967717;28;20418;-72
2023/11/23 11:02:01;;;;;;;1999.90;999.90;;;13.90;99.90;;;;;;4971298;28;20365;-73
2023/11/23 11:04:30;;;;;;;;;;;13.80;99.90;;;;;;4961230;28;20027;-73
2023/11/23 11:06:57;;;;;;;1999.90;999.90;;;13.80;99.90;;;;;;4963439;28;19988;-73
2023/11/23 11:09:26;;;;;;;1999.90;999.90;;;13.80;99.90;;;;;;4962273;28;20035;-73
2023/11/23 11:11:55;;;;;;;1999.90;999.90;;;13.70;99.90;;;;;;4970139;28;20102;-73
2023/11/23 11:14:34;;;;;;;1999.90;999.90;;;13.80;99.90;;;;;;4971842;28;20088;-72
2023/11/23 11:17:05;;;;;;;1999.90;999.90;;;13.80;99.90;;;;;;4997499;28;20330;-71
2023/11/23 11:19:50;;;;;;;1999.90;999.90;;;13.70;99.90;;;;;;4969627;28;20023;-73
2023/11/23 11:22:16;;;;;;;1999.90;999.90;;;13.80;99.90;;;;;;4969170;28;20317;-71
2023/11/23 11:24:44;;;;;;;1999.90;999.90;;;13.70;99.90;;;;;;4974207;28;20045;-72
2023/11/23 11:27:14;;;;;;;1999.90;999.90;;;13.70;99.90;;;;;;4967406;28;20042;-73
2023/11/23 11:29:49;;;;;;;1999.90;999.90;;;13.60;99.90;;;;;;4968516;28;20059;-73
2023/11/23 11:32:15;;;;;;;1999.90;999.90;;;13.60;99.90;;;;;;4974407;28;20015;-72
2023/11/23 11:34:41;;;;;;;1999.90;999.90;;;13.70;99.90;;;;;;4978271;28;20030;-72
2023/11/23 11:37:09;;;;;;;1999.90;999.90;;;13.70;99.90;;;;;;4968325;28;20326;-73
2023/11/23 11:39:37;;;;;;;1999.90;999.90;;;13.60;99.90;;;;;;4973681;28;20047;-72
2023/11/23 11:42:04;;;;;;;1999.90;999.90;;;13.70;99.90;;;;;;4970647;28;20031;-72
2023/11/23 11:44:35;;;;;;;1999.90;999.90;;;13.70;99.90;;;;;;4998331;28;20027;-72
2023/11/23 11:47:01;;;;;;;1999.90;999.90;;;13.80;99.90;;;;;;4971401;28;20027;-71
2023/11/23 11:49:27;;;;;;;1999.90;999.90;;;13.80;99.90;;;;;;4973967;28;20049;-74
2023/11/23 11:51:54;;;;;;;1999.90;999.90;;;13.80;99.90;;;;;;4971923;28;20031;-73
2023/11/23 11:54:21;;;;;;;1999.90;999.90;;;13.90;99.90;;;;;;4973050;28;20072;-72
2023/11/23 11:56:48;;;;;;;1999.90;999.90;;;13.90;99.90;;;;;;4974230;28;20110;-73
2023/11/23 11:59:16;;;;;;;;;;;13.90;99.90;;;;;;4972823;28;20039;-73
2023/11/23 12:01:43;;;;;;;1999.90;999.90;;;13.90;99.90;;;;;;4973916;28;19906;-73
2023/11/23 12:04:16;;;;;;;1999.90;999.90;;;13.90;99.90;;;;;;4983633;28;20030;-72